Time;durP1;ratioP1;P1;durP2;ratioP2;P2;SDS_P1;SDS_P2;PMS_P1;PMS_P2;Temp;Humidity;BMP_temperature;BMP_pressure;BME280_temperature;BME280_humidity;BME280_pressure;Samples;Min_cycle;Max_cycle;Signal;HPM_P1;HPM_P2
2022/07/05 00:02:07;;;;;;;;;;;27.40;49.80;;;;;;5055528;28;19913;-75
2022/07/05 00:04:33;;;;;;;;;;;27.40;50.00;;;;;;5055316;28;19909;-74
2022/07/05 00:09:42;;;;;;;;;;;27.40;49.90;;;;;;5054769;28;20068;-73
2022/07/05 00:12:08;;;;;;;;;;;27.40;50.00;;;;;;5054051;28;19991;-74
2022/07/05 00:14:33;;;;;;;;;;;27.30;50.10;;;;;;5037372;28;20011;-75
2022/07/05 00:16:59;;;;;;;;;;;27.30;50.00;;;;;;5053787;28;19928;-74
2022/07/05 00:19:24;;;;;;;;;;;27.30;50.10;;;;;;5054793;28;20274;-75
2022/07/05 00:21:50;;;;;;;;;;;27.30;50.30;;;;;;5054604;28;19919;-75
2022/07/05 00:24:15;;;;;;;;;;;27.20;50.30;;;;;;5054829;28;19915;-75
2022/07/05 00:26:41;;;;;;;;;;;27.20;50.30;;;;;;5054599;28;20007;-74
2022/07/05 00:29:06;;;;;;;;;;;27.20;50.30;;;;;;5054582;28;19999;-74
2022/07/05 00:31:32;;;;;;;;;;;27.10;50.30;;;;;;5054484;28;19939;-74
2022/07/05 00:33:57;;;;;;;;;;;27.20;50.50;;;;;;5036827;28;19909;-75
2022/07/05 00:36:23;;;;;;;;;;;27.20;50.30;;;;;;5054362;28;19913;-75
2022/07/05 00:38:48;;;;;;;;;;;27.20;50.50;;;;;;5054550;28;19924;-74
2022/07/05 00:41:14;;;;;;;;;;;27.20;50.70;;;;;;5054421;28;20310;-74
2022/07/05 00:43:53;;;;;;;;;;;27.10;50.50;;;;;;5054441;28;19912;-74
2022/07/05 00:46:18;;;;;;;;;;;27.10;50.50;;;;;;5055112;28;19913;-75
2022/07/05 00:48:44;;;;;;;;;;;27.10;50.50;;;;;;5054275;28;19920;-75
2022/07/05 00:51:10;;;;;;;;;;;27.10;50.40;;;;;;5054426;28;19909;-74
2022/07/05 00:53:35;;;;;;;;;;;27.10;50.50;;;;;;5054630;28;19947;-74
2022/07/05 00:56:01;;;;;;;;;;;27.10;50.60;;;;;;5053068;28;19908;-74
2022/07/05 00:58:27;;;;;;;;;;;27.10;50.60;;;;;;5054065;28;19908;-75
2022/07/05 01:00:52;;;;;;;;;;;27.10;50.50;;;;;;5054011;28;20223;-74
2022/07/05 01:03:18;;;;;;;;;;;27.10;50.80;;;;;;5053965;28;19912;-74
2022/07/05 01:05:44;;;;;;;;;;;27.00;50.80;;;;;;5053859;28;20266;-75
2022/07/05 01:08:10;;;;;;;;;;;27.00;50.80;;;;;;5053340;28;19909;-74
2022/07/05 01:10:36;;;;;;;;;;;27.00;51.00;;;;;;5053148;28;20326;-74
2022/07/05 01:13:02;;;;;;;;;;;27.00;50.90;;;;;;5053077;28;19912;-75
2022/07/05 01:15:28;;;;;;;;;;;26.90;50.90;;;;;;5053062;28;20019;-74
2022/07/05 01:17:54;;;;;;;;;;;26.90;50.90;;;;;;5051868;28;20268;-76
2022/07/05 01:20:19;;;;;;;;;;;26.90;50.90;;;;;;5053092;28;19920;-75
2022/07/05 01:22:55;;;;;;;;;;;26.90;50.90;;;;;;5052554;28;19913;-76
2022/07/05 01:25:21;;;;;;;;;;;26.90;51.10;;;;;;5035087;28;19913;-76
2022/07/05 01:27:48;;;;;;;;;;;26.90;51.10;;;;;;5053048;28;19908;-75
2022/07/05 01:30:14;;;;;;;;;;;26.90;51.10;;;;;;5052937;28;19923;-76
2022/07/05 01:32:40;;;;;;;;;;;26.80;51.00;;;;;;5034902;28;19999;-75
2022/07/05 01:35:07;;;;;;;;;;;26.80;51.00;;;;;;5053215;28;19913;-76
2022/07/05 01:37:32;;;;;;;;;;;26.80;51.00;;;;;;5062303;28;19926;-76
2022/07/05 01:40:01;;;;;;;;;;;26.80;51.00;;;;;;5072718;28;19919;-76
2022/07/05 01:42:27;;;;;;;;;;;26.80;51.00;;;;;;5072908;28;20259;-75
2022/07/05 01:44:52;;;;;;;;;;;26.80;51.10;;;;;;5073045;28;19916;-73
2022/07/05 01:47:18;;;;;;;;;;;26.80;51.20;;;;;;5072858;28;19913;-74
2022/07/05 01:49:45;;;;;;;;;;;26.80;51.20;;;;;;5072923;28;20703;-74
2022/07/05 01:52:12;;;;;;;;;;;26.80;51.20;;;;;;5072774;28;19932;-75
2022/07/05 01:54:38;;;;;;;;;;;26.70;51.30;;;;;;5072532;28;20369;-76
2022/07/05 01:57:04;;;;;;;;;;;26.70;51.40;;;;;;5054926;28;19920;-76
2022/07/05 01:59:31;;;;;;;;;;;26.70;51.40;;;;;;5072708;28;19920;-76
2022/07/05 02:01:57;;;;;;;;;;;26.70;51.50;;;;;;5054979;28;20015;-76
2022/07/05 02:04:23;;;;;;;;;;;26.60;51.40;;;;;;5072641;28;20277;-75
2022/07/05 02:06:48;;;;;;;;;;;26.60;51.60;;;;;;5072454;28;19909;-75
2022/07/05 02:09:14;;;;;;;;;;;26.60;51.60;;;;;;5072880;28;19908;-75
2022/07/05 02:11:39;;;;;;;;;;;26.60;51.80;;;;;;5074584;28;20267;-74
2022/07/05 02:14:05;;;;;;;;;;;26.60;51.60;;;;;;5073744;28;19908;-75
2022/07/05 02:16:30;;;;;;;;;;;26.50;51.60;;;;;;5073392;28;20013;-74
2022/07/05 02:18:56;;;;;;;;;;;26.50;51.60;;;;;;5073094;28;19915;-75
2022/07/05 02:21:22;;;;;;;;;;;26.50;51.70;;;;;;5073368;28;19924;-75
2022/07/05 02:23:47;;;;;;;;;;;26.50;51.70;;;;;;5073202;28;20417;-76
2022/07/05 02:26:13;;;;;;;;;;;26.50;51.80;;;;;;5073805;28;20712;-75
2022/07/05 02:28:39;;;;;;;;;;;26.50;51.70;;;;;;5055080;28;19908;-75
2022/07/05 02:31:04;;;;;;;;;;;26.50;51.80;;;;;;5072469;28;19916;-74
2022/07/05 02:33:30;;;;;;;;;;;26.50;51.80;;;;;;5072274;28;19909;-75
2022/07/05 02:35:55;;;;;;;;;;;26.60;52.00;;;;;;5056717;28;20328;-76
2022/07/05 02:38:21;;;;;;;;;;;26.60;51.80;;;;;;5076263;28;20329;-76
2022/07/05 02:40:46;;;;;;;;;;;26.60;51.90;;;;;;5076702;28;19919;-74
2022/07/05 02:43:12;;;;;;;;;;;26.60;51.80;;;;;;5076855;28;20423;-74
2022/07/05 02:45:37;;;;;;;;;;;26.50;51.80;;;;;;5076953;28;19917;-75
2022/07/05 02:48:03;;;;;;;;;;;26.50;52.00;;;;;;5076886;28;19995;-76
2022/07/05 02:50:29;;;;;;;;;;;26.50;52.10;;;;;;5076690;28;20274;-73
2022/07/05 02:52:54;;;;;;;;;;;26.50;52.10;;;;;;5058446;28;19916;-75
2022/07/05 02:55:20;;;;;;;;;;;26.50;52.20;;;;;;5076671;28;19908;-74
2022/07/05 02:57:45;;;;;;;;;;;26.50;52.10;;;;;;5076277;28;19915;-74
2022/07/05 03:00:11;;;;;;;;;;;26.50;52.00;;;;;;5075565;28;20007;-75
2022/07/05 03:02:37;;;;;;;;;;;26.50;52.00;;;;;;5075951;28;19920;-76
2022/07/05 03:05:02;;;;;;;;;;;26.60;52.10;;;;;;5075607;28;20007;-75
2022/07/05 03:07:28;;;;;;;;;;;26.60;52.00;;;;;;5075577;28;19908;-74
2022/07/05 03:09:53;;;;;;;;;;;26.60;51.90;;;;;;5076595;28;19912;-75
2022/07/05 03:12:19;;;;;;;;;;;26.70;51.90;;;;;;5076575;28;19955;-74
2022/07/05 03:14:44;;;;;;;;;;;26.70;51.90;;;;;;5076280;28;20355;-75
2022/07/05 03:17:10;;;;;;;;;;;26.70;51.80;;;;;;5076017;28;19931;-75
2022/07/05 03:19:36;;;;;;;;;;;26.80;51.80;;;;;;5076032;28;19913;-74
2022/07/05 03:22:01;;;;;;;;;;;26.80;51.70;;;;;;5076210;28;19928;-76
2022/07/05 03:24:27;;;;;;;;;;;26.80;51.60;;;;;;5076537;28;19912;-75
2022/07/05 03:26:52;;;;;;;;;;;26.90;51.70;;;;;;5076325;28;19913;-75
2022/07/05 03:29:18;;;;;;;;;;;26.90;51.70;;;;;;5075110;28;20370;-76
2022/07/05 03:31:43;;;;;;;;;;;26.90;51.70;;;;;;5057270;28;19916;-75
2022/07/05 03:34:09;;;;;;;;;;;26.90;51.70;;;;;;5074985;28;19908;-75
2022/07/05 03:36:34;;;;;;;;;;;26.90;51.70;;;;;;5056815;28;19912;-75
2022/07/05 03:39:00;;;;;;;;;;;26.90;51.70;;;;;;5075262;28;19959;-75
2022/07/05 03:41:26;;;;;;;;;;;26.90;51.70;;;;;;5076019;28;20014;-75
2022/07/05 03:43:51;;;;;;;;;;;26.10;51.30;;;;;;5075642;28;19914;-75
2022/07/05 03:46:17;;;;;;;;;;;27.00;51.80;;;;;;5073919;28;19919;-74
2022/07/05 03:48:42;;;;;;;;;;;27.00;51.80;;;;;;5046687;28;19920;-75
2022/07/05 03:51:08;;;;;;;;;;;27.00;51.80;;;;;;5063373;28;19936;-76
2022/07/05 03:53:33;;;;;;;;;;;27.00;51.80;;;;;;5059748;28;20351;-75
2022/07/05 03:55:59;;;;;;;;;;;27.00;51.70;;;;;;5055720;28;19909;-75
2022/07/05 03:58:25;;;;;;;;;;;27.10;51.70;;;;;;5060235;28;19997;-75
2022/07/05 04:00:50;;;;;;;;;;;27.10;51.70;;;;;;5055526;28;19982;-74
2022/07/05 04:03:16;;;;;;;;;;;27.20;51.80;;;;;;5060331;28;20367;-75
2022/07/05 04:05:41;;;;;;;;;;;27.20;51.70;;;;;;5037340;28;19923;-74
2022/07/05 04:08:07;;;;;;;;;;;27.20;51.60;;;;;;5059972;28;19913;-74
2022/07/05 04:10:32;;;;;;;;;;;27.20;51.60;;;;;;5055298;28;20011;-75
2022/07/05 04:12:58;;;;;;;;;;;27.20;51.60;;;;;;5060047;28;19913;-75
2022/07/05 04:15:23;;;;;;;;;;;27.30;51.70;;;;;;5037100;28;19909;-75
2022/07/05 04:17:50;;;;;;;;;;;27.30;51.60;;;;;;5044056;28;19992;-76
2022/07/05 04:20:17;;;;;;;;;;;27.30;51.60;;;;;;5073919;28;19912;-84
2022/07/05 04:22:42;;;;;;;;;;;27.40;51.80;;;;;;5074963;28;19916;-83
2022/07/05 04:25:17;;;;;;;;;;;27.40;51.80;;;;;;5058255;28;20361;-74
2022/07/05 04:27:46;;;;;;;;;;;27.50;51.90;;;;;;5075471;28;20320;-84
2022/07/05 04:30:12;;;;;;;;;;;27.50;51.90;;;;;;5056943;28;19908;-82
2022/07/05 04:32:38;;;;;;;;;;;27.50;51.80;;;;;;5074243;28;20358;-81
2022/07/05 04:35:03;;;;;;;;;;;27.60;51.70;;;;;;5075437;28;19915;-82
2022/07/05 04:37:29;;;;;;;;;;;27.60;51.70;;;;;;5074233;28;20359;-81
2022/07/05 04:39:54;;;;;;;;;;;27.70;51.60;;;;;;5056533;28;19919;-78
2022/07/05 04:42:20;;;;;;;;;;;27.80;51.60;;;;;;5056713;28;19999;-81
2022/07/05 04:44:45;;;;;;;;;;;27.30;51.20;;;;;;5055868;28;20007;-83
2022/07/05 04:47:11;;;;;;;;;;;26.80;50.70;;;;;;5074398;28;19912;-82
2022/07/05 04:49:36;;;;;;;;;;;27.90;51.30;;;;;;5066379;28;19908;-85
2022/07/05 04:52:02;;;;;;;;;;;28.00;51.30;;;;;;5068865;28;19938;-84
2022/07/05 04:54:27;;;;;;;;;;;28.10;51.30;;;;;;5055269;28;20367;-83
2022/07/05 04:56:53;;;;;;;;;;;28.10;51.20;;;;;;5059404;28;20260;-83
2022/07/05 04:59:18;;;;;;;;;;;28.20;51.10;;;;;;5064232;28;19912;-83
2022/07/05 05:01:44;;;;;;;;;;;28.20;51.10;;;;;;5070933;28;19916;-83
2022/07/05 05:04:09;;;;;;;;;;;28.30;51.10;;;;;;5059274;28;20377;-82
2022/07/05 05:06:35;;;;;;;;;;;28.30;50.90;;;;;;5063159;28;19917;-84
2022/07/05 05:09:01;;;;;;;;;;;28.40;50.90;;;;;;5063425;28;19909;-84
2022/07/05 05:11:26;;;;;;;;;;;28.40;50.80;;;;;;5061119;28;19955;-83
2022/07/05 05:13:52;;;;;;;;;;;28.50;50.80;;;;;;5064606;28;20337;-83
2022/07/05 05:16:17;;;;;;;;;;;28.50;50.70;;;;;;5062459;28;19952;-81
2022/07/05 05:18:43;;;;;;;;;;;28.50;50.70;;;;;;5062042;28;20343;-82
2022/07/05 05:21:08;;;;;;;;;;;28.50;50.50;;;;;;5061921;28;19936;-82
2022/07/05 05:23:34;;;;;;;;;;;28.60;50.60;;;;;;5061893;28;19951;-82
2022/07/05 05:26:00;;;;;;;;;;;28.60;50.60;;;;;;5063887;28;19908;-82
2022/07/05 05:28:25;;;;;;;;;;;28.70;50.60;;;;;;5068644;28;19961;-83
2022/07/05 05:30:51;;;;;;;;;;;28.70;50.50;;;;;;5067616;28;19917;-82
2022/07/05 05:33:16;;;;;;;;;;;28.70;50.40;;;;;;5056087;28;19920;-84
2022/07/05 05:35:42;;;;;;;;;;;28.80;50.50;;;;;;5054762;28;19963;-78
2022/07/05 05:38:07;;;;;;;;;;;28.80;50.40;;;;;;5072593;28;20036;-81
2022/07/05 05:40:33;;;;;;;;;;;28.80;50.30;;;;;;5072912;28;20035;-78
2022/07/05 05:42:59;;;;;;;;;;;28.90;50.30;;;;;;5054269;28;20344;-77
2022/07/05 05:45:25;;;;;;;;;;;28.90;50.40;;;;;;5066347;28;20333;-78
2022/07/05 05:47:50;;;;;;;;;;;28.90;50.20;;;;;;5061215;28;19955;-78
2022/07/05 05:50:23;;;;;;;;;;;28.90;50.20;;;;;;5053693;28;19966;-77
2022/07/05 05:52:48;;;;;;;;;;;28.90;50.30;;;;;;5072409;28;19935;-77
2022/07/05 05:55:14;;;;;;;;;;;28.90;50.30;;;;;;5036016;28;19966;-78
2022/07/05 05:57:40;;;;;;;;;;;28.90;50.20;;;;;;5059252;28;19913;-77
2022/07/05 06:00:06;;;;;;;;;;;28.90;50.20;;;;;;5052836;28;20359;-78
2022/07/05 06:02:32;;;;;;;;;;;28.90;50.30;;;;;;5069341;28;20290;-77
2022/07/05 06:04:58;;;;;;;;;;;28.50;50.60;;;;;;5038529;28;20047;-79
2022/07/05 06:07:24;;;;;;;;;;;28.90;50.30;;;;;;5052759;28;20362;-77
2022/07/05 06:09:49;;;;;;;;;;;29.00;50.50;;;;;;5055514;28;20003;-76
2022/07/05 06:12:15;;;;;;;;;;;29.00;50.50;;;;;;5057066;28;19916;-76
2022/07/05 06:14:40;;;;;;;;;;;29.00;50.40;;;;;;5056536;28;19908;-77
2022/07/05 06:17:06;;;;;;;;;;;29.00;50.50;;;;;;5043018;28;19963;-77
2022/07/05 06:19:31;;;;;;;;;;;29.00;50.50;;;;;;5076571;28;19916;-76
2022/07/05 06:21:57;;;;;;;;;;;29.00;50.50;;;;;;5076971;28;20051;-79
2022/07/05 06:24:23;;;;;;;;;;;29.00;50.60;;;;;;5077081;28;19936;-77
2022/07/05 06:26:48;;;;;;;;;;;29.10;50.80;;;;;;5076840;28;20278;-79
2022/07/05 06:29:14;;;;;;;;;;;29.00;50.70;;;;;;5076474;28;20353;-76
2022/07/05 06:31:39;;;;;;;;;;;29.10;50.80;;;;;;5076592;28;19908;-78
2022/07/05 06:34:05;;;;;;;;;;;29.10;50.70;;;;;;5076391;28;19912;-76
2022/07/05 06:36:30;;;;;;;;;;;29.10;50.70;;;;;;5076474;28;19912;-76
2022/07/05 06:38:56;;;;;;;;;;;29.10;50.60;;;;;;5039548;28;19920;-76
2022/07/05 06:41:21;;;;;;;;;;;29.20;50.50;;;;;;5056509;28;19912;-77
2022/07/05 06:43:47;;;;;;;;;;;29.20;50.40;;;;;;5056459;28;20427;-76
2022/07/05 06:46:12;;;;;;;;;;;29.30;50.30;;;;;;5057008;28;19921;-77
2022/07/05 06:48:39;;;;;;;;;;;29.30;50.20;;;;;;5056555;28;19913;-77
2022/07/05 06:51:04;;;;;;;;;;;29.30;49.80;;;;;;5056441;28;20063;-77
2022/07/05 06:53:30;;;;;;;;;;;29.30;49.60;;;;;;5056420;28;20375;-75
2022/07/05 06:55:55;;;;;;;;;;;29.30;49.30;;;;;;5056264;28;19908;-76
2022/07/05 06:58:21;;;;;;;;;;;29.40;49.20;;;;;;5057073;28;20007;-76
2022/07/05 07:00:47;;;;;;;;;;;29.40;49.10;;;;;;5056728;28;20279;-76
2022/07/05 07:03:12;;;;;;;;;;;29.40;49.00;;;;;;5037997;28;19921;-78
2022/07/05 07:05:38;;;;;;;;;;;29.50;49.00;;;;;;5039573;28;19959;-76
2022/07/05 07:10:48;;;;;;;;;;;29.60;48.80;;;;;;5056270;28;19916;-78
2022/07/05 07:13:13;;;;;;;;;;;29.70;48.70;;;;;;5055500;28;20003;-78
2022/07/05 07:15:40;;;;;;;;;;;29.70;48.60;;;;;;5055443;28;19909;-78
2022/07/05 07:18:06;;;;;;;;;;;29.80;48.60;;;;;;5055539;28;19909;-76
2022/07/05 07:20:31;;;;;;;;;;;29.80;48.60;;;;;;5055020;28;19967;-78
2022/07/05 07:22:57;;;;;;;;;;;29.90;48.40;;;;;;5055676;28;19953;-78
2022/07/05 07:25:25;;;;;;;;;;;30.00;48.30;;;;;;5055600;28;19919;-77
2022/07/05 07:27:52;;;;;;;;;;;30.00;48.20;;;;;;5055459;28;20359;-78
2022/07/05 07:30:19;;;;;;;;;;;30.10;48.20;;;;;;5055361;28;19913;-77
2022/07/05 07:32:45;;;;;;;;;;;30.10;48.10;;;;;;5055900;28;19909;-77
2022/07/05 07:35:11;;;;;;;;;;;30.20;48.20;;;;;;5055027;28;19968;-78
2022/07/05 07:37:37;;;;;;;;;;;30.20;48.10;;;;;;5063339;28;19966;-78
2022/07/05 07:40:03;;;;;;;;;;;30.20;48.20;;;;;;5075417;28;20362;-77
2022/07/05 07:42:28;;;;;;;;;;;30.20;48.30;;;;;;5075194;28;19920;-78
2022/07/05 07:44:54;;;;;;;;;;;30.30;48.30;;;;;;5074722;28;19920;-74
2022/07/05 07:47:20;;;;;;;;;;;30.30;48.40;;;;;;5075016;28;19916;-73
2022/07/05 07:49:45;;;;;;;;;;;30.40;48.60;;;;;;5075202;28;19908;-73
2022/07/05 07:52:11;;;;;;;;;;;30.40;48.80;;;;;;5075106;28;20320;-74
2022/07/05 07:54:36;;;;;;;;;;;30.40;49.00;;;;;;5075218;28;19908;-75
2022/07/05 07:57:04;;;;;;;;;;;30.50;49.00;;;;;;5074670;28;19912;-75
2022/07/05 07:59:30;;;;;;;;;;;30.50;49.10;;;;;;5074748;28;20362;-74
2022/07/05 08:01:56;;;;;;;;;;;30.50;49.10;;;;;;5075124;28;20005;-76
2022/07/05 08:04:22;;;;;;;;;;;30.50;49.10;;;;;;5074622;28;19931;-75
2022/07/05 08:06:47;;;;;;;;;;;30.50;49.00;;;;;;5074740;28;19909;-74
2022/07/05 08:09:13;;;;;;;;;;;30.60;49.20;;;;;;5074641;28;19923;-76
2022/07/05 08:11:39;;;;;;;;;;;30.60;49.20;;;;;;5074430;28;19951;-77
2022/07/05 08:14:04;;;;;;;;;;;30.60;49.10;;;;;;5074455;28;20027;-75
2022/07/05 08:16:30;;;;;;;;;;;30.60;49.10;;;;;;5074781;28;19908;-74
2022/07/05 08:21:39;;;;;;;;;;;30.60;49.20;;;;;;5074686;28;19970;-75
2022/07/05 08:24:06;;;;;;;;;;;30.60;49.20;;;;;;5074378;28;19955;-75
2022/07/05 08:26:32;;;;;;;;;;;30.50;49.10;;;;;;5074201;28;19909;-75
2022/07/05 08:29:01;;;;;;;;;;;30.50;49.10;;;;;;5073992;28;19915;-75
2022/07/05 08:31:28;;;;;;;;;;;30.50;49.20;;;;;;5074240;28;20271;-74
2022/07/05 08:33:53;;;;;;;;;;;30.50;49.20;;;;;;5073324;28;19916;-75
2022/07/05 08:36:19;;;;;;;;;;;30.50;49.30;;;;;;5074053;28;19909;-75
2022/07/05 08:38:45;;;;;;;;;;;30.50;49.30;;;;;;5073703;28;20294;-76
2022/07/05 08:41:10;;;;;;;;;;;30.50;49.30;;;;;;5073452;28;19923;-77
2022/07/05 08:43:44;;;;;;;;;;;30.50;49.30;;;;;;5074065;28;19913;-75
2022/07/05 08:46:11;;;;;;;;;;;30.50;49.20;;;;;;5073892;28;19916;-75
2022/07/05 08:48:41;;;;;;;;;;;30.50;49.20;;;;;;5073842;28;19909;-75
2022/07/05 08:51:17;;;;;;;;;;;30.50;49.10;;;;;;5073573;28;19909;-74
2022/07/05 08:53:44;;;;;;;;;;;30.50;49.20;;;;;;5073647;28;19916;-75
2022/07/05 08:56:10;;;;;;;;;;;30.50;49.10;;;;;;5073726;28;19908;-76
2022/07/05 08:58:36;;;;;;;;;;;30.50;49.10;;;;;;5073842;28;19962;-74
2022/07/05 09:01:02;;;;;;;;;;;30.60;49.20;;;;;;5073505;28;19948;-75
2022/07/05 09:03:31;;;;;;;;;;;30.60;49.10;;;;;;5073550;28;19947;-75
2022/07/05 09:05:57;;;;;;;;;;;30.60;49.00;;;;;;5073161;28;19915;-77
2022/07/05 09:08:23;;;;;;;;;;;30.70;49.00;;;;;;5055829;28;19962;-75
2022/07/05 09:10:50;;;;;;;;;;;30.70;48.90;;;;;;5074368;28;19952;-78
2022/07/05 09:13:15;;;;;;;;;;;30.80;48.90;;;;;;5074069;28;19908;-77
2022/07/05 09:15:42;;;;;;;;;;;30.80;48.80;;;;;;5073952;28;19916;-76
2022/07/05 09:18:09;;;;;;;;;;;30.80;48.70;;;;;;5055347;28;19996;-74
2022/07/05 09:20:34;;;;;;;;;;;30.80;48.70;;;;;;5073184;28;19988;-76
2022/07/05 09:23:00;;;;;;;;;;;30.80;48.50;;;;;;5073622;28;19958;-75
2022/07/05 09:25:29;;;;;;;;;;;30.80;48.50;;;;;;5055644;28;19908;-76
2022/07/05 09:27:59;;;;;;;;;;;30.80;48.50;;;;;;5073465;28;19908;-75
2022/07/05 09:30:28;;;;;;;;;;;30.70;48.40;;;;;;5073460;28;19912;-76
2022/07/05 09:33:03;;;;;;;;;;;30.70;48.30;;;;;;5073060;28;19909;-76
2022/07/05 09:35:33;;;;;;;;;;;30.70;48.30;;;;;;5073473;28;19912;-76
2022/07/05 09:37:58;;;;;;;;;;;30.70;48.30;;;;;;5073306;28;20133;-76
2022/07/05 09:40:24;;;;;;;;;;;30.60;48.30;;;;;;5055549;28;20007;-75
2022/07/05 09:42:50;;;;;;;;;;;30.60;48.30;;;;;;5055367;28;19920;-75
2022/07/05 09:45:23;;;;;;;;;;;30.60;48.30;;;;;;5078906;28;19924;-74
2022/07/05 09:47:48;;;;;;;;;;;30.50;48.30;;;;;;5079964;28;19913;-77
2022/07/05 09:50:14;;;;;;;;;;;30.50;48.30;;;;;;5061741;28;19913;-77
2022/07/05 09:52:40;;;;;;;;;;;30.50;48.30;;;;;;5062207;28;19908;-75
2022/07/05 09:55:16;;;;;;;;;;;30.50;48.30;;;;;;5061853;28;20007;-74
2022/07/05 09:57:42;;;;;;;;;;;30.50;48.40;;;;;;5061906;28;19908;-76
2022/07/05 10:00:09;;;;;;;;;;;30.50;48.30;;;;;;5079355;28;19916;-75
2022/07/05 10:02:38;;;;;;;;;;;30.50;48.20;;;;;;5062265;28;19919;-75
2022/07/05 10:05:22;;;;;;;;;;;30.50;48.10;;;;;;5079786;28;19953;-75
2022/07/05 10:07:49;;;;;;;;;;;30.50;48.10;;;;;;5079997;28;19961;-77
2022/07/05 10:10:22;;;;;;;;;;;30.50;48.10;;;;;;5061633;28;19908;-76
2022/07/05 10:12:48;;;;;;;;;;;30.50;48.10;;;;;;5079451;28;19965;-76
2022/07/05 10:15:15;;;;;;;;;;;30.50;48.10;;;;;;5079135;28;19999;-75
2022/07/05 10:17:43;;;;;;;;;;;30.50;48.00;;;;;;5080339;28;20353;-77
2022/07/05 10:20:27;;;;;;;;;;;30.60;48.00;;;;;;5081255;28;19920;-76
2022/07/05 10:22:53;;;;;;;;;;;30.50;47.90;;;;;;5079949;28;19920;-75
2022/07/05 10:25:19;;;;;;;;;;;30.50;47.90;;;;;;5079915;28;19909;-76
2022/07/05 10:27:45;;;;;;;;;;;30.50;47.90;;;;;;5080204;28;20362;-75
2022/07/05 10:30:11;;;;;;;;;;;30.50;47.90;;;;;;5081401;28;20311;-74
2022/07/05 10:32:38;;;;;;;;;;;30.50;47.80;;;;;;5080042;28;19908;-75
2022/07/05 10:35:03;;;;;;;;;;;30.50;47.70;;;;;;5079881;28;19919;-75
2022/07/05 10:37:30;;;;;;;;;;;30.50;47.70;;;;;;5079935;28;20011;-76
2022/07/05 10:39:57;;;;;;;;;;;30.60;47.70;;;;;;5061533;28;19919;-76
2022/07/05 10:42:24;;;;;;;;;;;30.60;47.60;;;;;;5079958;28;19917;-76
2022/07/05 10:44:50;;;;;;;;;;;30.60;47.50;;;;;;5062067;28;19960;-76
2022/07/05 10:47:17;;;;;;;;;;;30.50;47.40;;;;;;5062132;28;19916;-76
2022/07/05 10:49:43;;;;;;;;;;;30.50;47.40;;;;;;5061817;28;19912;-75
2022/07/05 10:52:23;;;;;;;;;;;30.50;47.40;;;;;;5061965;28;19958;-75
2022/07/05 10:55:08;;;;;;;;;;;30.50;47.40;;;;;;5079805;28;19913;-75
2022/07/05 10:57:33;;;;;;;;;;;30.50;47.40;;;;;;5058183;28;20011;-76
2022/07/05 11:00:06;;;;;;;;;;;30.50;47.40;;;;;;5058707;28;20003;-76
2022/07/05 11:02:31;;;;;;;;;;;30.50;47.40;;;;;;5076528;28;19912;-76
2022/07/05 11:04:57;;;;;;;;;;;30.50;47.40;;;;;;5076380;28;19995;-75
2022/07/05 11:07:42;;;;;;;;;;;30.50;47.40;;;;;;5058596;28;20333;-76
2022/07/05 11:10:07;;;;;;;;;;;30.50;47.40;;;;;;5076229;28;20258;-76
2022/07/05 11:12:37;;;;;;;;;;;30.50;47.40;;;;;;5076390;28;19920;-76
2022/07/05 11:15:07;;;;;;;;;;;30.40;47.30;;;;;;5076157;28;20313;-76
2022/07/05 11:17:34;;;;;;;;;;;30.40;47.90;;;;;;5076422;28;19909;-78
2022/07/05 11:20:01;;;;;;;;;;;30.40;47.30;;;;;;5076268;28;19916;-75
2022/07/05 11:22:27;;;;;;;;;;;30.40;47.30;;;;;;5076031;28;19913;-74
2022/07/05 11:24:53;;;;;;;;;;;30.40;47.30;;;;;;5076192;28;20266;-76
2022/07/05 11:27:18;;;;;;;;;;;30.40;47.30;;;;;;5058198;28;19908;-75
2022/07/05 11:29:44;;;;;;;;;;;30.40;47.30;;;;;;5076727;28;19916;-76
2022/07/05 11:32:13;;;;;;;;;;;30.50;47.20;;;;;;5076145;28;19908;-76
2022/07/05 11:34:39;;;;;;;;;;;30.50;47.20;;;;;;5076316;28;19915;-74
2022/07/05 11:37:14;;;;;;;;;;;30.50;47.10;;;;;;5054945;28;20334;-76
2022/07/05 11:39:39;;;;;;;;;;;30.60;47.10;;;;;;5056050;28;20007;-76
2022/07/05 11:42:05;;;;;;;;;;;30.60;47.00;;;;;;5071124;28;19952;-76
2022/07/05 11:44:34;;;;;;;;;;;30.70;47.00;;;;;;5055672;28;19915;-76
2022/07/05 11:47:00;;;;;;;;;;;30.70;46.90;;;;;;5037859;28;19909;-76
2022/07/05 11:49:26;;;;;;;;;;;30.70;46.90;;;;;;5037942;28;20310;-76
2022/07/05 11:51:59;;;;;;;;;;;30.70;46.80;;;;;;5060553;28;19963;-75
2022/07/05 11:54:25;;;;;;;;;;;30.80;46.80;;;;;;5055720;28;19908;-76
2022/07/05 11:56:50;;;;;;;;;;;30.80;46.80;;;;;;5055583;28;19909;-76
2022/07/05 11:59:25;;;;;;;;;;;30.80;46.70;;;;;;5055763;28;19909;-76
2022/07/05 12:01:52;;;;;;;;;;;30.80;46.70;;;;;;5055839;28;19913;-76
2022/07/05 12:04:23;;;;;;;;;;;30.80;46.60;;;;;;5055416;28;19932;-75
2022/07/05 12:06:50;;;;;;;;;;;30.90;46.60;;;;;;5055052;28;19909;-76
2022/07/05 12:09:21;;;;;;;;;;;30.90;46.70;;;;;;5055420;28;19956;-75
2022/07/05 12:14:51;;;;;;;;;;;30.90;46.60;;;;;;5013466;28;19974;-75
2022/07/05 12:17:17;;;;;;;;;;;30.90;46.50;;;;;;5028523;28;19915;-76
2022/07/05 12:19:44;;;;;;;;;;;30.90;46.50;;;;;;5037021;28;20286;-76
2022/07/05 12:22:10;;;;;;;;;;;30.90;46.40;;;;;;5037566;28;20389;-76
2022/07/05 12:24:35;;;;;;;;;;;31.00;47.10;;;;;;5054946;28;19908;-76
2022/07/05 12:27:01;;;;;;;;;;;31.00;46.40;;;;;;5054757;28;20004;-75
2022/07/05 12:29:27;;;;;;;;;;;31.10;46.30;;;;;;5070374;28;19932;-76
2022/07/05 12:32:00;;;;;;;;;;;31.10;46.30;;;;;;5054803;28;19912;-76
2022/07/05 12:34:25;;;;;;;;;;;31.20;46.20;;;;;;5070232;28;20386;-76
2022/07/05 12:36:51;;;;;;;;;;;31.20;46.20;;;;;;5039030;28;19909;-76
2022/07/05 12:39:16;;;;;;;;;;;31.30;46.10;;;;;;5075725;28;19995;-76
2022/07/05 12:41:42;;;;;;;;;;;31.30;46.00;;;;;;5074703;28;20270;-76
2022/07/05 12:44:08;;;;;;;;;;;31.30;46.00;;;;;;5074656;28;19914;-76
2022/07/05 12:46:38;;;;;;;;;;;31.40;45.90;;;;;;5074749;28;19922;-76
2022/07/05 12:49:03;;;;;;;;;;;31.40;45.80;;;;;;5056640;28;19912;-75
2022/07/05 12:51:33;;;;;;;;;;;31.50;45.80;;;;;;5074445;28;20227;-76
2022/07/05 12:59:34;;;;;;;;;;;31.60;45.60;;;;;;5074384;28;19920;-76
2022/07/05 13:02:00;;;;;;;;;;;31.70;45.60;;;;;;5074385;28;19912;-76
2022/07/05 13:04:25;;;;;;;;;;;31.80;45.50;;;;;;5074514;28;19909;-75
2022/07/05 13:06:51;;;;;;;;;;;31.80;45.40;;;;;;5074446;28;19909;-76
2022/07/05 13:09:37;;;;;;;;;;;32.00;45.40;;;;;;5074361;28;19909;-76
2022/07/05 13:12:15;;;;;;;;;;;32.10;45.40;;;;;;5074074;28;19908;-75
2022/07/05 13:14:45;;;;;;;;;;;32.10;45.10;;;;;;5055908;28;19912;-75
2022/07/05 13:17:11;;;;;;;;;;;32.20;45.00;;;;;;5074077;28;19915;-75
2022/07/05 13:19:38;;;;;;;;;;;32.20;44.90;;;;;;5055656;28;20289;-76
2022/07/05 13:22:04;;;;;;;;;;;32.40;44.70;;;;;;5055918;28;20297;-76
2022/07/05 13:24:29;;;;;;;;;;;32.40;44.70;;;;;;5074152;28;19909;-76
2022/07/05 13:26:55;;;;;;;;;;;32.50;44.60;;;;;;5074166;28;19912;-77
2022/07/05 13:29:21;;;;;;;;;;;32.60;44.40;;;;;;5073956;28;19909;-76
2022/07/05 13:31:47;;;;;;;;;;;32.70;44.50;;;;;;5073846;28;19909;-76
2022/07/05 13:34:12;;;;;;;;;;;32.80;44.40;;;;;;5073952;28;20011;-75
2022/07/05 13:36:38;;;;;;;;;;;33.00;44.40;;;;;;5074035;28;19915;-76
2022/07/05 13:39:03;;;;;;;;;;;33.30;43.90;;;;;;5036264;28;19979;-76
2022/07/05 13:41:29;;;;;;;;;;;33.60;43.90;;;;;;5053595;28;20019;-77
2022/07/05 13:43:55;;;;;;;;;;;34.00;43.90;;;;;;5053791;28;19917;-76
2022/07/05 13:46:21;;;;;;;;;;;34.50;43.40;;;;;;5054185;28;19960;-75
2022/07/05 13:48:46;;;;;;;;;;;35.10;42.80;;;;;;5054177;28;20262;-76
2022/07/05 13:51:12;;;;;;;;;;;35.60;42.30;;;;;;5054114;28;19979;-76
2022/07/05 13:53:37;;;;;;;;;;;36.20;41.70;;;;;;5054849;28;20244;-76
2022/07/05 13:56:04;;;;;;;;;;;36.70;41.60;;;;;;5054311;28;19913;-75
2022/07/05 13:58:29;;;;;;;;;;;37.20;42.40;;;;;;5036110;28;20359;-76
2022/07/05 14:00:55;;;;;;;;;;;37.80;41.00;;;;;;5069247;28;19959;-76
2022/07/05 14:03:20;;;;;;;;;;;38.30;40.80;;;;;;5053408;28;19913;-76
2022/07/05 14:05:46;;;;;;;;;;;38.70;42.00;;;;;;5068669;28;19921;-76
2022/07/05 14:08:12;;;;;;;;;;;39.10;40.50;;;;;;5053755;28;19913;-77
2022/07/05 14:10:38;;;;;;;;;;;39.50;39.40;;;;;;5068913;28;20036;-75
2022/07/05 14:13:03;;;;;;;;;;;39.90;39.90;;;;;;5053353;28;19937;-76
2022/07/05 14:15:29;;;;;;;;;;;40.20;39.40;;;;;;5053475;28;19909;-75
2022/07/05 14:17:55;;;;;;;;;;;40.50;39.90;;;;;;5053405;28;19913;-76
2022/07/05 14:20:21;;;;;;;;;;;40.80;38.60;;;;;;5053446;28;19913;-76
2022/07/05 14:22:46;;;;;;;;;;;41.00;38.90;;;;;;5053236;28;19967;-76
2022/07/05 14:25:12;;;;;;;;;;;41.20;38.50;;;;;;5053621;28;19912;-75
2022/07/05 14:27:38;;;;;;;;;;;41.40;38.30;;;;;;5053332;28;19913;-76
2022/07/05 14:30:07;;;;;;;;;;;41.40;38.50;;;;;;5053155;28;19913;-76